Time;durP1;ratioP1;P1;durP2;ratioP2;P2;SDS_P1;SDS_P2;PMS_P1;PMS_P2;Temp;Humidity;BMP_temperature;BMP_pressure;BME280_temperature;BME280_humidity;BME280_pressure;Samples;Min_cycle;Max_cycle;Signal;HPM_P1;HPM_P2
2022/11/12 00:00:57;;;;;;;;;;;5.70;99.90;;;;;;5029332;28;20008;-44
2022/11/12 00:03:23;;;;;;;;;;;5.70;99.90;;;;;;5028210;28;20007;-51
2022/11/12 00:05:50;;;;;;;;;;;5.70;99.90;;;;;;5009642;28;20004;-47
2022/11/12 00:08:16;;;;;;;;;;;5.70;99.90;;;;;;5009431;28;19918;-48
2022/11/12 00:10:41;;;;;;;;;;;5.70;99.90;;;;;;5009964;28;19913;-47
2022/11/12 00:13:07;;;;;;;;;;;5.70;99.90;;;;;;5013343;28;19936;-50
2022/11/12 00:15:33;;;;;;;;;;;5.70;99.90;;;;;;5015358;28;19981;-45
2022/11/12 00:17:58;;;;;;;;;;;5.70;99.90;;;;;;5009249;28;19916;-46
2022/11/12 00:20:24;;;;;;;;;;;5.70;99.90;;;;;;5009079;28;20012;-46
2022/11/12 00:22:49;;;;;;;;;;;5.70;99.90;;;;;;5013819;28;20007;-43
2022/11/12 00:25:15;;;;;;;;;;;5.70;99.90;;;;;;5020665;28;19925;-44
2022/11/12 00:27:40;;;;;;;;;;;5.70;99.90;;;;;;5029487;28;19913;-47
2022/11/12 00:30:06;;;;;;;;;;;5.60;99.90;;;;;;5013019;28;19917;-45
2022/11/12 00:32:34;;;;;;;;;;;5.60;99.90;;;;;;5008623;28;19937;-46
2022/11/12 00:34:59;;;;;;;;;;;5.70;99.90;;;;;;5007765;28;19919;-48
2022/11/12 00:37:25;;;;;;;;;;;5.60;99.90;;;;;;5008695;28;19923;-47
2022/11/12 00:39:50;;;;;;;;;;;5.60;99.90;;;;;;5008460;28;20668;-48
2022/11/12 00:42:16;;;;;;;;;;;5.60;99.90;;;;;;5009065;28;19938;-45
2022/11/12 00:44:41;;;;;;;;;;;5.60;99.90;;;;;;5010040;28;19980;-50
2022/11/12 00:47:07;;;;;;;;;;;5.60;99.90;;;;;;5008855;28;19918;-50
2022/11/12 00:49:32;;;;;;;;;;;5.60;99.90;;;;;;5008896;28;19949;-50
2022/11/12 00:51:58;;;;;;;;;;;5.60;99.90;;;;;;5009028;28;20288;-44
2022/11/12 00:54:23;;;;;;;;;;;5.60;99.90;;;;;;5012361;28;19917;-44
2022/11/12 00:56:48;;;;;;;;;;;5.60;99.90;;;;;;5017148;28;20364;-46
2022/11/12 00:59:14;;;;;;;;;;;5.60;99.90;;;;;;5017954;28;19991;-46
2022/11/12 01:01:40;;;;;;;;;;;5.60;99.90;;;;;;5008729;28;19909;-45
2022/11/12 01:04:05;;;;;;;;;;;5.60;99.90;;;;;;5008784;28;19944;-46
2022/11/12 01:06:31;;;;;;;;;;;5.50;99.90;;;;;;5008812;28;20031;-48
2022/11/12 01:08:56;;;;;;;;;;;5.50;99.90;;;;;;5008223;28;19944;-44
2022/11/12 01:11:23;;;;;;;;;;;5.50;99.90;;;;;;5008246;28;19929;-45
2022/11/12 01:13:53;;;;;;;;;;;5.50;99.90;;;;;;5013107;28;19920;-45
2022/11/12 01:16:20;;;;;;;;;;;5.50;99.90;;;;;;5008928;28;20392;-49
2022/11/12 01:18:46;;;;;;;;;;;5.50;99.90;;;;;;5024594;28;19923;-46
2022/11/12 01:21:12;;;;;;;;;;;5.50;99.90;;;;;;5028392;28;20058;-45
2022/11/12 01:23:39;;;;;;;;;;;5.50;99.90;;;;;;5021550;28;19921;-46
2022/11/12 01:26:08;;;;;;;;;;;5.50;99.90;;;;;;5027507;28;19916;-46
2022/11/12 01:28:34;;;;;;;;;;;5.50;99.90;;;;;;5013354;28;19922;-46
2022/11/12 01:31:10;;;;;;;;;;;5.50;99.90;;;;;;5008947;28;20004;-47
2022/11/12 01:33:35;;;;;;;;;;;5.50;99.90;;;;;;5008430;28;20012;-50
2022/11/12 01:36:01;;;;;;;;;;;5.40;99.90;;;;;;5008498;28;20417;-46
2022/11/12 01:38:26;;;;;;;;;;;5.50;99.90;;;;;;5008151;28;19980;-49
2022/11/12 01:40:52;;;;;;;;;;;5.50;99.90;;;;;;5015628;28;20007;-44
2022/11/12 01:43:17;;;;;;;;;;;5.50;99.90;;;;;;5019739;28;20291;-48
2022/11/12 01:45:45;;;;;;;;;;;5.50;99.90;;;;;;5032065;28;19917;-46
2022/11/12 01:48:19;;;;;;;;;;;5.50;99.90;;;;;;5030582;28;19917;-45
2022/11/12 01:50:45;;;;;;;;;;;5.50;99.90;;;;;;5027891;28;20681;-49
2022/11/12 01:53:11;;;;;;;;;;;5.50;99.90;;;;;;5018015;28;19968;-45
2022/11/12 01:55:36;;;;;;;;;;;5.50;99.90;;;;;;5011393;28;20308;-50
2022/11/12 01:58:08;;;;;;;;;;;5.50;99.90;;;;;;5022890;28;19913;-46
2022/11/12 02:00:34;;;;;;;;;;;5.50;99.90;;;;;;5011684;28;20352;-46
2022/11/12 02:03:01;;;;;;;;;;;5.40;99.90;;;;;;5013841;28;19917;-43
2022/11/12 02:05:28;;;;;;;;;;;5.50;99.90;;;;;;5022289;28;19964;-46
2022/11/12 02:07:54;;;;;;;;;;;5.50;99.90;;;;;;5027261;28;19942;-47
2022/11/12 02:10:20;;;;;;;;;;;5.50;99.90;;;;;;5015088;28;19921;-46
2022/11/12 02:15:47;;;;;;;;;;;5.50;99.90;;;;;;5000516;28;19922;-46
2022/11/12 02:18:14;;;;;;;;;;;5.50;99.90;;;;;;5013374;28;20016;-45
2022/11/12 02:20:39;;;;;;;;;;;5.50;99.90;;;;;;5016472;28;20280;-45
2022/11/12 02:23:06;;;;;;;;;;;5.50;99.90;;;;;;5013184;28;19913;-47
2022/11/12 02:25:31;;;;;;;;;;;5.50;99.90;;;;;;5025596;28;19921;-52
2022/11/12 02:27:57;;;;;;;;;;;5.50;99.90;;;;;;5021748;28;19924;-48
2022/11/12 02:30:34;;;;;;;;;;;5.40;99.90;;;;;;5010933;28;19940;-45
2022/11/12 02:32:59;;;;;;;;;;;5.40;99.90;;;;;;5011257;28;20032;-47
2022/11/12 02:35:25;;;;;;;;;;;5.50;99.90;;;;;;5011312;28;20422;-49
2022/11/12 02:37:50;;;;;;;;;;;5.40;99.90;;;;;;5010804;28;19956;-46
2022/11/12 02:40:16;;;;;;;;;;;5.50;99.90;;;;;;5010993;28;19920;-46
2022/11/12 02:42:41;;;;;;;;;;;5.50;99.90;;;;;;5010501;28;20502;-50
2022/11/12 02:45:07;;;;;;;;;;;5.50;99.90;;;;;;5031057;28;20359;-44
2022/11/12 02:47:32;;;;;;;;;;;5.50;99.90;;;;;;5027612;28;19959;-49
2022/11/12 02:49:58;;;;;;;;;;;5.50;99.90;;;;;;5025851;28;19913;-47
2022/11/12 02:52:23;;;;;;;;;;;5.50;99.90;;;;;;5022743;28;20403;-44
2022/11/12 02:54:49;;;;;;;;;;;5.50;99.90;;;;;;5028598;28;19975;-48
2022/11/12 02:57:14;;;;;;;;;;;5.50;99.90;;;;;;5028662;28;20036;-49
2022/11/12 02:59:40;;;;;;;;;;;5.40;99.90;;;;;;5014349;28;19913;-45
2022/11/12 03:02:05;;;;;;;;;;;5.40;99.90;;;;;;5021072;28;19913;-46
2022/11/12 03:04:31;;;;;;;;;;;5.50;99.90;;;;;;5028659;28;19970;-49
2022/11/12 03:06:56;;;;;;;;;;;5.40;99.90;;;;;;5017904;28;20683;-46
2022/11/12 03:09:22;;;;;;;;;;;5.50;99.90;;;;;;5010444;28;19920;-45
2022/11/12 03:11:47;;;;;;;;;;;5.40;99.90;;;;;;5019115;28;19933;-49
2022/11/12 03:14:13;;;;;;;;;;;5.40;99.90;;;;;;5026117;28;19920;-45
2022/11/12 03:16:38;;;;;;;;;;;5.40;99.90;;;;;;5029981;28;19948;-44
2022/11/12 03:19:04;;;;;;;;;;;5.40;99.90;;;;;;5009846;28;19975;-49
2022/11/12 03:21:29;;;;;;;;;;;5.40;99.90;;;;;;5010209;28;19909;-44
2022/11/12 03:23:55;;;;;;;;;;;5.40;99.90;;;;;;5010543;28;19917;-44
2022/11/12 03:26:20;;;;;;;;;;;5.40;99.90;;;;;;5011553;28;20457;-43
2022/11/12 03:28:46;;;;;;;;;;;5.30;99.90;;;;;;5009781;28;19921;-46
2022/11/12 03:31:11;;;;;;;;;;;5.30;99.90;;;;;;5009746;28;19914;-44
2022/11/12 03:33:37;;;;;;;;;;;5.30;99.90;;;;;;5010024;28;19917;-45
2022/11/12 03:36:03;;;;;;;;;;;5.30;99.90;;;;;;5009446;28;19917;-44
2022/11/12 03:38:28;;;;;;;;;;;5.30;99.90;;;;;;5009911;28;20271;-45
2022/11/12 03:40:54;;;;;;;;;;;5.30;99.90;;;;;;5010000;28;19992;-45
2022/11/12 03:43:19;;;;;;;;;;;5.30;99.90;;;;;;5024853;28;20032;-44
2022/11/12 03:45:45;;;;;;;;;;;5.30;99.90;;;;;;5010222;28;19947;-44
2022/11/12 03:48:10;;;;;;;;;;;5.30;99.90;;;;;;5009400;28;19924;-44
2022/11/12 03:50:36;;;;;;;;;;;5.30;99.90;;;;;;5009055;28;19917;-46
2022/11/12 03:53:02;;;;;;;;;;;5.20;99.90;;;;;;5009338;28;20353;-47
2022/11/12 03:55:28;;;;;;;;;;;5.30;99.90;;;;;;5009533;28;19917;-48
2022/11/12 03:57:53;;;;;;;;;;;5.20;99.90;;;;;;5011516;28;19967;-44
2022/11/12 04:00:20;;;;;;;;;;;5.20;99.90;;;;;;5009496;28;20364;-45
2022/11/12 04:02:45;;;;;;;;;;;5.20;99.90;;;;;;5009333;28;20517;-46
2022/11/12 04:10:58;;;;;;;;;;;5.10;99.90;;;;;;5009605;28;20059;-45
2022/11/12 04:13:26;;;;;;;;;;;5.10;99.90;;;;;;5009022;28;20001;-45
2022/11/12 04:21:50;;;;;;;;;;;5.00;99.90;;;;;;5012662;28;19925;-47
2022/11/12 04:27:00;;;;;;;;;;;5.00;99.90;;;;;;5009796;28;20283;-46
2022/11/12 04:32:10;;;;;;;;;;;5.00;99.90;;;;;;5008727;28;19924;-46
2022/11/12 04:34:35;;;;;;;;;;;4.90;99.90;;;;;;5009342;28;19913;-45
2022/11/12 04:37:02;;;;;;;;;;;4.90;99.90;;;;;;5009288;28;19917;-43
2022/11/12 04:39:28;;;;;;;;;;;4.90;99.90;;;;;;5012262;28;20292;-45
2022/11/12 04:44:59;;;;;;;;;;;4.80;99.90;;;;;;5028860;28;19979;-46
2022/11/12 04:47:26;;;;;;;;;;;4.80;99.90;;;;;;5018274;28;19921;-47
2022/11/12 04:49:51;;;;;;;;;;;4.80;99.90;;;;;;5008294;28;19928;-49
2022/11/12 04:52:17;;;;;;;;;;;4.80;99.90;;;;;;5026941;28;19921;-50
2022/11/12 04:54:42;;;;;;;;;;;4.70;99.90;;;;;;5014009;28;19918;-45
2022/11/12 04:57:08;;;;;;;;;;;4.70;99.90;;;;;;5014827;28;20000;-44
2022/11/12 04:59:34;;;;;;;;;;;4.70;99.90;;;;;;5009113;28;19933;-46
2022/11/12 05:01:59;;;;;;;;;;;4.70;99.90;;;;;;5009053;28;20047;-45
2022/11/12 05:04:27;;;;;;;;;;;4.70;99.90;;;;;;5008838;28;20463;-46
2022/11/12 05:06:54;;;;;;;;;;;4.70;99.90;;;;;;5018914;28;19924;-52
2022/11/12 05:09:20;;;;;;;;;;;4.70;99.90;;;;;;5022200;28;19921;-50
2022/11/12 05:11:46;;;;;;;;;;;4.60;99.90;;;;;;5016147;28;19933;-46
2022/11/12 05:14:12;;;;;;;;;;;4.60;99.90;;;;;;5008798;28;19913;-47
2022/11/12 05:16:38;;;;;;;;;;;4.60;99.90;;;;;;5009435;28;19917;-51
2022/11/12 05:19:04;;;;;;;;;;;4.60;99.90;;;;;;5010164;28;20379;-46
2022/11/12 05:24:13;;;;;;;;;;;4.70;99.90;;;;;;5013584;28;20039;-46
2022/11/12 05:26:39;;;;;;;;;;;4.70;99.90;;;;;;5020088;28;20405;-49
2022/11/12 05:29:04;;;;;;;;;;;4.80;99.90;;;;;;5015464;28;19913;-44
2022/11/12 05:31:30;;;;;;;;;;;4.80;99.90;;;;;;5012237;28;19952;-50
2022/11/12 05:33:55;;;;;;;;;;;4.80;99.90;;;;;;5012972;28;19917;-49
2022/11/12 05:36:21;;;;;;;;;;;4.90;99.90;;;;;;5012261;28;19913;-47
2022/11/12 05:38:46;;;;;;;;;;;4.90;99.90;;;;;;5012194;28;19968;-49
2022/11/12 05:41:12;;;;;;;;;;;4.90;99.90;;;;;;5014481;28;19925;-44
2022/11/12 05:43:37;;;;;;;;;;;5.00;99.90;;;;;;5011909;28;19971;-44
2022/11/12 05:46:03;;;;;;;;;;;5.00;99.90;;;;;;5032002;28;19918;-44
2022/11/12 05:48:28;;;;;;;;;;;5.00;99.90;;;;;;5031719;28;19935;-44
2022/11/12 05:50:54;;;;;;;;;;;5.00;99.90;;;;;;5022986;28;19964;-45
2022/11/12 05:53:19;;;;;;;;;;;5.00;99.90;;;;;;5026442;28;19916;-44
2022/11/12 05:55:45;;;;;;;;;;;5.00;99.90;;;;;;5014739;28;20323;-47
2022/11/12 05:58:10;;;;;;;;;;;5.00;99.90;;;;;;5022694;28;19917;-47
2022/11/12 06:00:39;;;;;;;;;;;4.90;99.90;;;;;;5011564;28;19960;-44
2022/11/12 06:03:05;;;;;;;;;;;4.90;99.90;;;;;;5031628;28;19913;-44
2022/11/12 06:05:34;;;;;;;;;;;4.90;99.90;;;;;;5027899;28;19921;-44
2022/11/12 06:07:59;;;;;;;;;;;4.90;99.90;;;;;;5011102;28;19967;-46
2022/11/12 06:10:25;;;;;;;;;;;4.80;99.90;;;;;;5012192;28;19949;-44
2022/11/12 06:12:51;;;;;;;;;;;4.80;99.90;;;;;;5012745;28;19936;-44
2022/11/12 06:15:16;;;;;;;;;;;4.80;99.90;;;;;;5012432;28;20131;-45
2022/11/12 06:17:42;;;;;;;;;;;4.70;99.90;;;;;;5011809;28;20303;-52
2022/11/12 06:20:08;;;;;;;;;;;4.70;99.90;;;;;;5012876;28;19937;-46
2022/11/12 06:22:33;;;;;;;;;;;4.70;99.90;;;;;;5014131;28;19917;-46
2022/11/12 06:24:59;;;;;;;;;;;4.60;99.90;;;;;;5029837;28;19917;-47
2022/11/12 06:27:24;;;;;;;;;;;4.60;99.90;;;;;;5013422;28;19920;-47
2022/11/12 06:29:50;;;;;;;;;;;4.50;99.90;;;;;;5012102;28;20434;-44
2022/11/12 06:32:15;;;;;;;;;;;4.60;99.90;;;;;;5011190;28;19913;-43
2022/11/12 06:34:41;;;;;;;;;;;4.60;99.90;;;;;;5010689;28;19924;-44
2022/11/12 06:37:06;;;;;;;;;;;4.60;99.90;;;;;;5027019;28;19963;-46
2022/11/12 06:39:32;;;;;;;;;;;4.60;99.90;;;;;;5027127;28;20059;-44
2022/11/12 06:41:57;;;;;;;;;;;4.60;99.90;;;;;;5030912;28;19919;-44
2022/11/12 06:44:23;;;;;;;;;;;4.60;99.90;;;;;;5028734;28;19917;-45
2022/11/12 06:46:48;;;;;;;;;;;4.60;99.90;;;;;;5028780;28;19917;-46
2022/11/12 06:49:14;;;;;;;;;;;4.60;99.90;;;;;;5010256;28;20253;-45
2022/11/12 06:51:39;;;;;;;;;;;4.70;99.90;;;;;;5010732;28;20004;-45
2022/11/12 06:54:05;;;;;;;;;;;4.60;99.90;;;;;;5011552;28;19917;-45
2022/11/12 06:56:30;;;;;;;;;;;4.70;99.90;;;;;;5007827;28;19964;-49
2022/11/12 06:58:56;;;;;;;;;;;4.70;99.90;;;;;;5038849;28;19924;-45
2022/11/12 07:01:22;;;;;;;;;;;4.70;99.90;;;;;;5030380;28;19913;-47
2022/11/12 07:03:50;;;;;;;;;;;4.80;99.90;;;;;;5024131;28;19974;-47
2022/11/12 07:06:18;;;;;;;;;;;4.80;99.90;;;;;;5018181;28;19913;-46
2022/11/12 07:08:43;;;;;;;;;;;4.80;99.90;;;;;;5021779;28;20356;-46
2022/11/12 07:11:09;;;;;;;;;;;4.80;99.90;;;;;;5019819;28;19975;-45
2022/11/12 07:13:35;;;;;;;;;;;4.70;99.90;;;;;;5016321;28;19914;-48
2022/11/12 07:16:01;;;;;;;;;;;4.70;99.90;;;;;;5019460;28;19916;-44
2022/11/12 07:18:27;;;;;;;;;;;4.80;99.90;;;;;;5016434;28;20024;-46
2022/11/12 07:20:59;;;;;;;;;;;4.70;99.90;;;;;;5023641;28;19917;-43
2022/11/12 07:23:26;;;;;;;;;;;4.80;99.90;;;;;;5009146;28;20016;-47
2022/11/12 07:25:56;;;;;;;;;;;4.90;99.90;;;;;;5008864;28;19931;-46
2022/11/12 07:28:22;;;;;;;;;;;4.90;99.90;;;;;;5009630;28;20003;-47
2022/11/12 07:30:53;;;;;;;;;;;4.90;99.90;;;;;;5007788;28;19917;-50
2022/11/12 07:33:18;;;;;;;;;;;4.90;99.90;;;;;;5019212;28;20443;-50
2022/11/12 07:35:44;;;;;;;;;;;5.00;99.90;;;;;;5012119;28;19924;-45
2022/11/12 07:38:09;;;;;;;;;;;4.90;99.90;;;;;;5006216;28;19925;-48
2022/11/12 07:40:35;;;;;;;;;;;4.90;99.90;;;;;;5008096;28;19913;-49
2022/11/12 07:43:00;;;;;;;;;;;4.90;99.90;;;;;;5012039;28;20057;-47
2022/11/12 07:45:26;;;;;;;;;;;4.90;99.90;;;;;;5010831;28;20560;-47
2022/11/12 07:47:51;;;;;;;;;;;5.00;99.90;;;;;;5016693;28;19970;-56
2022/11/12 07:50:17;;;;;;;;;;;5.10;99.90;;;;;;5016678;28;19961;-52
2022/11/12 07:52:42;;;;;;;;;;;5.10;99.90;;;;;;5014178;28;19917;-49
2022/11/12 07:55:14;;;;;;;;;;;5.20;99.90;;;;;;5003986;28;20235;-52
2022/11/12 07:57:40;;;;;;;;;;;5.50;99.90;;;;;;5007156;28;20395;-51
2022/11/12 08:00:06;;;;;;;;;;;5.90;99.90;;;;;;5010415;28;19921;-51
2022/11/12 08:02:33;;;;;;;;;;;6.30;99.90;;;;;;5012906;28;20364;-57
2022/11/12 08:04:59;;;;;;;;;;;6.70;99.90;;;;;;5010896;28;20016;-52
2022/11/12 08:07:24;;;;;;;;;;;7.10;99.90;;;;;;5005932;28;19917;-56
2022/11/12 08:09:50;;;;;;;;;;;7.70;99.90;;;;;;5012705;28;19912;-55
2022/11/12 08:12:15;;;;;;;;;;;8.20;99.90;;;;;;5011268;28;20221;-58
2022/11/12 08:14:41;;;;;;;;;;;8.30;99.90;;;;;;5007351;28;20268;-53
2022/11/12 08:17:06;;;;;;;;;;;8.40;99.90;;;;;;5009672;28;19928;-56
2022/11/12 08:19:32;;;;;;;;;;;8.30;99.90;;;;;;5007533;28;19921;-53
2022/11/12 08:21:57;;;;;;;;;;;8.40;99.90;;;;;;5013312;28;20382;-56
2022/11/12 08:24:23;;;;;;;;;;;8.50;99.90;;;;;;5016076;28;19917;-54
2022/11/12 08:26:48;;;;;;;;;;;8.60;99.90;;;;;;5015100;28;20086;-56
2022/11/12 08:29:14;;;;;;;;;;;8.70;99.90;;;;;;5013698;28;19913;-55
2022/11/12 08:31:39;;;;;;;;;;;8.90;99.90;;;;;;5014221;28;20440;-56
2022/11/12 08:34:11;;;;;;;;;;;8.80;99.90;;;;;;5006731;28;20008;-56
2022/11/12 08:36:36;;;;;;;;;;;9.00;99.90;;;;;;5008877;28;19917;-55
2022/11/12 08:39:02;;;;;;;;;;;8.80;99.90;;;;;;5015125;28;19952;-54
2022/11/12 08:41:28;;;;;;;;;;;9.00;99.90;;;;;;5014995;28;19917;-56
2022/11/12 08:43:53;;;;;;;;;;;8.90;99.90;;;;;;5013389;28;19913;-56
2022/11/12 08:46:18;;;;;;;;;;;9.20;99.90;;;;;;5007076;28;20032;-56
2022/11/12 08:48:44;;;;;;;;;;;9.50;99.90;;;;;;5003189;28;19913;-55
2022/11/12 08:51:10;;;;;;;;;;;9.80;99.90;;;;;;5008867;28;19921;-55
2022/11/12 08:53:35;;;;;;;;;;;10.10;99.90;;;;;;5013386;28;19923;-56
2022/11/12 08:56:01;;;;;;;;;;;10.40;99.90;;;;;;5018402;28;20388;-57
2022/11/12 08:58:26;;;;;;;;;;;10.70;99.90;;;;;;5010068;28;19922;-57
2022/11/12 09:00:52;;;;;;;;;;;10.70;99.90;;;;;;5016059;28;19928;-54
2022/11/12 09:03:19;;;;;;;;;;;10.30;99.90;;;;;;5010219;28;20711;-56
2022/11/12 09:05:44;;;;;;;;;;;10.50;99.90;;;;;;5020605;28;20016;-55
2022/11/12 09:08:12;;;;;;;;;;;10.30;99.90;;;;;;5009592;28;19918;-55
2022/11/12 09:10:38;;;;;;;;;;;10.50;99.90;;;;;;5015158;28;19928;-57
2022/11/12 09:13:03;;;;;;;;;;;10.70;99.90;;;;;;5013742;28;19925;-57
2022/11/12 09:15:29;;;;;;;;;;;10.80;99.90;;;;;;5010356;28;20754;-56
2022/11/12 09:17:55;;;;;;;;;;;10.90;99.90;;;;;;5010968;28;20368;-56
2022/11/12 09:20:21;;;;;;;;;;;10.60;99.90;;;;;;5011974;28;19920;-54
2022/11/12 09:22:46;;;;;;;;;;;10.70;99.90;;;;;;5023120;28;19917;-56
2022/11/12 09:25:12;;;;;;;;;;;10.80;99.90;;;;;;5021714;28;20036;-52
2022/11/12 09:27:37;;;;;;;;;;;10.40;99.90;;;;;;5020865;28;19917;-57
2022/11/12 09:30:03;;;;;;;;;;;10.20;99.90;;;;;;5029643;28;19985;-56
2022/11/12 09:32:29;;;;;;;;;;;10.30;99.90;;;;;;5027006;28;19914;-57
2022/11/12 09:34:54;;;;;;;;;;;10.20;99.90;;;;;;5019106;28;20348;-57
2022/11/12 09:37:20;;;;;;;;;;;10.50;99.90;;;;;;5013855;28;19913;-58
2022/11/12 09:39:45;;;;;;;;;;;11.00;99.90;;;;;;5013223;28;20391;-59
2022/11/12 09:42:19;;;;;;;;;;;11.20;99.90;;;;;;5014354;28;19920;-56
2022/11/12 09:44:50;;;;;;;;;;;11.70;99.90;;;;;;5031367;28;19919;-57
2022/11/12 09:47:19;;;;;;;;;;;12.30;99.90;;;;;;5028062;28;19913;-57
2022/11/12 09:49:50;;;;;;;;;;;12.90;99.90;;;;;;5012868;28;19960;-56
2022/11/12 09:52:22;;;;;;;;;;;13.20;99.90;;;;;;5013601;28;19932;-57
2022/11/12 09:54:49;;;;;;;;;;;13.50;99.90;;;;;;5021930;28;20288;-55
2022/11/12 09:57:15;;;;;;;;;;;14.50;99.90;;;;;;5030379;28;19909;-57
2022/11/12 09:59:41;;;;;;;;;;;14.90;97.80;;;;;;5025452;28;19928;-52
2022/11/12 10:02:30;;;;;;;;;;;15.50;95.20;;;;;;5007299;28;20537;-56
2022/11/12 10:05:01;;;;;;;;;;;16.30;91.80;;;;;;5017647;28;20342;-58
2022/11/12 10:07:47;;;;;;;;;;;16.90;88.60;;;;;;5005913;28;19924;-59
2022/11/12 10:10:12;;;;;;;;;;;17.60;88.30;;;;;;4964225;28;19995;-59
2022/11/12 10:12:38;;;;;;;;;;;19.00;78.60;;;;;;5006373;28;19933;-58
2022/11/12 10:18:15;;;;;;;;;;;19.10;67.70;;;;;;5018594;28;20003;-58
2022/11/12 10:21:03;;;;;;;;;;;18.70;70.90;;;;;;5008803;28;19923;-58
2022/11/12 10:23:35;;;;;;;;;;;18.80;69.80;;;;;;5007386;28;20004;-58
2022/11/12 10:26:04;;;;;;;;;;;19.10;67.00;;;;;;5008071;28;19928;-59
2022/11/12 10:28:37;;;;;;;;;;;19.50;66.30;;;;;;5017784;28;19921;-60
2022/11/12 10:31:21;;;;;;;;;;;20.10;63.30;;;;;;5006864;28;20000;-56
2022/11/12 10:33:46;;;;;;;;;;;20.40;59.60;;;;;;5022726;28;20329;-59
2022/11/12 10:36:32;;;;;;;;;;;20.60;57.90;;;;;;5014768;28;19913;-59
2022/11/12 10:38:58;;;;;;;;;;;20.40;57.40;;;;;;5004916;28;19981;-59
2022/11/12 10:41:29;;;;;;;;;;;20.80;57.70;;;;;;5021720;28;20008;-59
2022/11/12 10:43:56;;;;;;;;;;;20.90;54.80;;;;;;5027574;28;19913;-60
2022/11/12 10:46:26;;;;;;;;;;;21.30;53.80;;;;;;5020206;28;20007;-60
2022/11/12 10:48:55;;;;;;;;;;;21.50;52.20;;;;;;5011215;28;19909;-59
2022/11/12 10:51:31;;;;;;;;;;;21.40;51.50;;;;;;5012044;28;19914;-59
2022/11/12 10:53:56;;;;;;;;;;;21.40;51.60;;;;;;5024662;28;19921;-60
2022/11/12 10:56:27;;;;;;;;;;;21.10;52.40;;;;;;5013370;28;20363;-54
2022/11/12 10:59:08;;;;;;;;;;;21.90;50.90;;;;;;5015546;28;19910;-59
2022/11/12 11:01:34;;;;;;;;;;;22.30;48.90;;;;;;5010783;28;19963;-59
2022/11/12 11:03:59;;;;;;;;;;;22.40;47.70;;;;;;5023358;28;19917;-59
2022/11/12 11:06:25;;;;;;;;;;;22.10;48.60;;;;;;5017735;28;19913;-59
2022/11/12 11:08:52;;;;;;;;;;;22.00;48.70;;;;;;5016339;28;19917;-58
2022/11/12 11:11:30;;;;;;;;;;;22.30;47.70;;;;;;5015851;28;19925;-59
2022/11/12 11:13:57;;;;;;;;;;;21.70;49.00;;;;;;5004743;28;19943;-59
2022/11/12 11:16:26;;;;;;;;;;;21.50;47.70;;;;;;5008130;28;19917;-56
2022/11/12 11:18:54;;;;;;;;;;;21.50;47.20;;;;;;5012097;28;19921;-60
2022/11/12 11:21:27;;;;;;;;;;;22.20;47.70;;;;;;5016821;28;19917;-59
2022/11/12 11:24:05;;;;;;;;;;;22.30;47.50;;;;;;5025685;28;19967;-59
2022/11/12 11:26:49;;;;;;;;;;;22.80;45.80;;;;;;5023343;28;19917;-58
2022/11/12 11:29:17;;;;;;;;;;;22.70;45.60;;;;;;5019608;28;20012;-59
2022/11/12 11:32:03;;;;;;;;;;;22.20;46.10;;;;;;5028449;28;19963;-58
2022/11/12 11:34:31;;;;;;;;;;;22.50;45.40;;;;;;5016832;28;20285;-55
2022/11/12 11:37:06;;;;;;;;;;;22.90;44.40;;;;;;5012783;28;19922;-58
2022/11/12 11:39:44;;;;;;;;;;;23.00;45.50;;;;;;5012261;28;19963;-59
2022/11/12 11:42:26;;;;;;;;;;;22.40;44.40;;;;;;5011377;28;19917;-59
2022/11/12 11:44:55;;;;;;;;;;;22.50;44.80;;;;;;5018008;28;19928;-59
2022/11/12 11:47:26;;;;;;;;;;;22.60;45.10;;;;;;5012995;28;19917;-59
2022/11/12 11:49:54;;;;;;;;;;;22.70;43.60;;;;;;5020762;28;19916;-59
2022/11/12 11:52:23;;;;;;;;;;;22.70;44.70;;;;;;5020949;28;19917;-59
2022/11/12 11:55:07;;;;;;;;;;;22.90;43.80;;;;;;5014493;28;19999;-60
2022/11/12 11:57:53;;;;;;;;;;;23.00;42.60;;;;;;5022633;28;20043;-58
2022/11/12 12:00:20;;;;;;;;;;;23.60;42.10;;;;;;5010399;28;19952;-59
2022/11/12 12:03:01;;;;;;;;;;;23.90;41.30;;;;;;5016923;28;19964;-59
2022/11/12 12:05:26;;;;;;;;;;;24.00;40.10;;;;;;5010492;28;20356;-60
2022/11/12 12:08:05;;;;;;;;;;;24.60;40.80;;;;;;5011080;28;20000;-57
2022/11/12 12:10:31;;;;;;;;;;;24.80;38.70;;;;;;5010158;28;19909;-56
2022/11/12 12:13:00;;;;;;;;;;;24.60;38.50;;;;;;5009957;28;20691;-57
2022/11/12 12:15:40;;;;;;;;;;;24.60;39.50;;;;;;5009975;28;19910;-60
2022/11/12 12:18:25;;;;;;;;;;;24.40;36.00;;;;;;5010294;28;19917;-57
2022/11/12 12:20:54;;;;;;;;;;;24.20;35.60;;;;;;5009749;28;19909;-58
2022/11/12 12:23:32;;;;;;;;;;;24.30;35.30;;;;;;5010166;28;19914;-58
2022/11/12 12:25:59;;;;;;;;;;;24.40;34.70;;;;;;5011019;28;19913;-58
2022/11/12 12:28:38;;;;;;;;;;;24.60;34.20;;;;;;5018315;28;20287;-60
2022/11/12 12:31:10;;;;;;;;;;;24.70;34.60;;;;;;5023461;28;20443;-58
2022/11/12 12:33:51;;;;;;;;;;;25.00;33.90;;;;;;5015510;28;19940;-58
2022/11/12 12:36:20;;;;;;;;;;;24.70;33.30;;;;;;5015136;28;19956;-58
2022/11/12 12:38:48;;;;;;;;;;;24.00;34.10;;;;;;5018191;28;20407;-59
2022/11/12 12:41:26;;;;;;;;;;;23.70;33.60;;;;;;5009937;28;19992;-59
2022/11/12 12:43:51;;;;;;;;;;;23.80;32.80;;;;;;5009980;28;20359;-56
2022/11/12 12:46:20;;;;;;;;;;;23.60;33.20;;;;;;5019161;28;19913;-58
2022/11/12 12:48:46;;;;;;;;;;;23.20;34.20;;;;;;5010593;28;19951;-57
2022/11/12 12:51:12;;;;;;;;;;;22.60;35.00;;;;;;5009376;28;19949;-59
2022/11/12 12:53:39;;;;;;;;;;;22.50;36.40;;;;;;5010993;28;19942;-59
2022/11/12 12:56:13;;;;;;;;;;;22.40;36.40;;;;;;5009234;28;20273;-58
2022/11/12 12:58:39;;;;;;;;;;;22.10;37.60;;;;;;5015468;28;20755;-52
2022/11/12 13:01:09;;;;;;;;;;;21.70;39.50;;;;;;5009546;28;19992;-58
2022/11/12 13:03:43;;;;;;;;;;;22.10;39.30;;;;;;5023514;28;19964;-58
2022/11/12 13:06:21;;;;;;;;;;;22.40;39.20;;;;;;5010495;28;19995;-59
2022/11/12 13:09:06;;;;;;;;;;;22.30;39.00;;;;;;5010305;28;19924;-58
2022/11/12 13:12:20;;;;;;;;;;;22.30;38.70;;;;;;5010732;28;19921;-59
2022/11/12 13:14:34;;;;;;;;;;;22.00;39.10;;;;;;5009435;28;20662;-59
2022/11/12 13:17:00;;;;;;;;;;;21.60;39.80;;;;;;5010132;28;19914;-59
2022/11/12 13:19:26;;;;;;;;;;;21.30;39.80;;;;;;5015057;28;19917;-59
2022/11/12 13:22:12;;;;;;;;;;;21.50;39.80;;;;;;5013064;28;19924;-59
2022/11/12 13:24:56;;;;;;;;;;;20.90;39.80;;;;;;5009519;28;19913;-59
2022/11/12 13:27:41;;;;;;;;;;;20.60;40.30;;;;;;5009112;28;19916;-59
2022/11/12 13:30:12;;;;;;;;;;;20.20;41.50;;;;;;5008890;28;20415;-58
2022/11/12 13:32:46;;;;;;;;;;;20.20;40.80;;;;;;5013747;28;19917;-58
2022/11/12 13:35:21;;;;;;;;;;;20.10;41.30;;;;;;5016945;28;19921;-58
2022/11/12 13:38:10;;;;;;;;;;;19.60;42.20;;;;;;5020196;28;19917;-58
2022/11/12 13:40:44;;;;;;;;;;;19.50;42.40;;;;;;5012019;28;20024;-53
2022/11/12 13:43:12;;;;;;;;;;;19.50;43.00;;;;;;5012425;28;19913;-58
2022/11/12 13:45:40;;;;;;;;;;;19.40;44.00;;;;;;5013679;28;19914;-59
2022/11/12 13:48:07;;;;;;;;;;;19.40;44.90;;;;;;5013113;28;19913;-58
2022/11/12 13:50:33;;;;;;;;;;;19.70;43.80;;;;;;5013419;28;20356;-56
2022/11/12 13:52:58;;;;;;;;;;;19.80;44.80;;;;;;5012907;28;19916;-58
2022/11/12 13:55:24;;;;;;;;;;;20.00;43.90;;;;;;5012807;28;19959;-58
2022/11/12 13:57:49;;;;;;;;;;;20.00;43.20;;;;;;5016107;28;19913;-58
2022/11/12 14:00:20;;;;;;;;;;;19.80;43.90;;;;;;5013282;28;19916;-58
2022/11/12 14:02:51;;;;;;;;;;;19.80;45.30;;;;;;5024478;28;19924;-51
2022/11/12 14:05:18;;;;;;;;;;;19.90;43.50;;;;;;5022678;28;19984;-59
2022/11/12 14:08:00;;;;;;;;;;;20.10;43.10;;;;;;5013386;28;20032;-58
2022/11/12 14:10:28;;;;;;;;;;;20.00;44.70;;;;;;5012951;28;19963;-52
2022/11/12 14:13:17;;;;;;;;;;;19.90;44.30;;;;;;5012587;28;19987;-58
2022/11/12 14:15:48;;;;;;;;;;;20.00;42.20;;;;;;5013882;28;19909;-58
2022/11/12 14:18:23;;;;;;;;;;;20.10;41.50;;;;;;5012797;28;20083;-54
2022/11/12 14:20:48;;;;;;;;;;;19.70;43.40;;;;;;5013943;28;19917;-58
2022/11/12 14:23:15;;;;;;;;;;;19.30;45.00;;;;;;5012143;28;21407;-58
2022/11/12 14:25:47;;;;;;;;;;;18.90;44.80;;;;;;5012212;28;19914;-57
2022/11/12 14:28:25;;;;;;;;;;;18.70;46.30;;;;;;5022238;28;19952;-58
2022/11/12 14:30:51;;;;;;;;;;;18.60;47.30;;;;;;5016725;28;20670;-60
2022/11/12 14:33:17;;;;;;;;;;;18.40;45.90;;;;;;5016509;28;19986;-58
2022/11/12 14:35:43;;;;;;;;;;;18.30;46.30;;;;;;5015452;28;19910;-57
2022/11/12 14:38:08;;;;;;;;;;;18.10;48.60;;;;;;5022130;28;19923;-58
2022/11/12 14:40:35;;;;;;;;;;;17.70;48.60;;;;;;5013963;28;19917;-58
2022/11/12 14:43:01;;;;;;;;;;;17.40;50.30;;;;;;5016753;28;19916;-58
2022/11/12 14:45:26;;;;;;;;;;;17.10;50.80;;;;;;5011602;28;20665;-58
2022/11/12 14:47:52;;;;;;;;;;;17.00;51.60;;;;;;5025425;28;20331;-57
2022/11/12 14:50:20;;;;;;;;;;;16.60;54.70;;;;;;5018296;28;19971;-57
2022/11/12 14:52:48;;;;;;;;;;;16.30;55.50;;;;;;5010614;28;19913;-58
2022/11/12 14:55:16;;;;;;;;;;;16.00;57.60;;;;;;5016962;28;19914;-58
2022/11/12 14:57:42;;;;;;;;;;;15.80;57.40;;;;;;5018868;28;19915;-58